Time;durP1;ratioP1;P1;durP2;ratioP2;P2;SDS_P1;SDS_P2;PMS_P1;PMS_P2;Temp;Humidity;BMP_temperature;BMP_pressure;BME280_temperature;BME280_humidity;BME280_pressure;Samples;Min_cycle;Max_cycle;Signal;HPM_P1;HPM_P2
2023/12/04 00:00:07;;;;;;;11.27;5.13;;;20.70;65.40;;;;;;4969921;28;20057;-57
2023/12/04 00:02:34;;;;;;;17.63;5.40;;;20.70;65.90;;;;;;4969965;28;20480;-59
2023/12/04 00:05:00;;;;;;;20.15;11.55;;;20.50;66.20;;;;;;4971190;28;20472;-56
2023/12/04 00:07:27;;;;;;;18.77;5.43;;;20.40;66.30;;;;;;4970398;28;20606;-61
2023/12/04 00:09:53;;;;;;;13.15;5.30;;;20.30;66.90;;;;;;4971559;28;20074;-58
2023/12/04 00:12:20;;;;;;;11.50;4.90;;;20.30;67.20;;;;;;4971069;28;20056;-55
2023/12/04 00:14:46;;;;;;;10.88;5.00;;;20.20;67.60;;;;;;4969365;28;20132;-57
2023/12/04 00:17:13;;;;;;;14.43;5.68;;;20.10;67.80;;;;;;4970555;28;20042;-55
2023/12/04 00:19:39;;;;;;;16.23;5.97;;;20.10;68.30;;;;;;4970786;28;20596;-59
2023/12/04 00:22:06;;;;;;;15.98;5.43;;;20.00;68.30;;;;;;4970441;28;20069;-56
2023/12/04 00:24:32;;;;;;;19.10;5.60;;;19.90;68.70;;;;;;4968211;28;20482;-58
2023/12/04 00:26:59;;;;;;;51.20;22.70;;;19.80;69.00;;;;;;4969426;28;20039;-57
2023/12/04 00:29:25;;;;;;;19.40;5.65;;;19.80;69.30;;;;;;4968703;28;20135;-56
2023/12/04 00:31:52;;;;;;;21.80;7.68;;;19.70;70.00;;;;;;4969469;28;20067;-62
2023/12/04 00:34:18;;;;;;;15.82;5.70;;;19.60;70.70;;;;;;4966688;28;20061;-58
2023/12/04 00:36:45;;;;;;;23.88;9.70;;;19.50;70.70;;;;;;4964662;28;20096;-55
2023/12/04 00:39:12;;;;;;;26.73;6.60;;;19.40;71.00;;;;;;4964276;28;20042;-59
2023/12/04 00:41:38;;;;;;;16.27;5.93;;;19.30;72.50;;;;;;4959959;28;20573;-61
2023/12/04 00:44:05;;;;;;;29.10;6.70;;;19.30;71.80;;;;;;4964047;28;20062;-60
2023/12/04 00:46:31;;;;;;;19.30;6.47;;;19.20;72.10;;;;;;4965874;28;20544;-61
2023/12/04 00:48:58;;;;;;;20.00;6.57;;;19.10;72.20;;;;;;4966469;28;20185;-58
2023/12/04 00:51:26;;;;;;;24.85;6.43;;;19.10;72.50;;;;;;4968327;28;20458;-58
2023/12/04 00:53:53;;;;;;;19.88;7.28;;;19.00;72.90;;;;;;4966953;28;20574;-60
2023/12/04 00:56:20;;;;;;;23.05;7.97;;;18.90;72.90;;;;;;4973208;28;20072;-57
2023/12/04 00:58:47;;;;;;;27.65;8.20;;;18.90;73.20;;;;;;4969135;28;20659;-60
2023/12/04 01:01:13;;;;;;;36.67;9.90;;;18.90;73.90;;;;;;4972130;28;20148;-61
2023/12/04 01:03:40;;;;;;;22.73;8.40;;;18.80;74.30;;;;;;4972553;28;20064;-60
2023/12/04 01:06:07;;;;;;;29.92;9.52;;;18.60;74.50;;;;;;4973183;28;20075;-60
2023/12/04 01:08:33;;;;;;;32.15;10.05;;;18.60;75.00;;;;;;4971901;28;20063;-61
2023/12/04 01:11:00;;;;;;;27.58;10.95;;;18.50;75.60;;;;;;4970108;28;20458;-60
2023/12/04 01:13:26;;;;;;;41.80;12.13;;;18.50;76.10;;;;;;4969435;28;20063;-61
2023/12/04 01:15:53;;;;;;;47.50;13.07;;;18.40;76.40;;;;;;4966260;28;20066;-59
2023/12/04 01:18:19;;;;;;;36.67;11.68;;;18.40;76.60;;;;;;4973225;28;20167;-57
2023/12/04 01:20:46;;;;;;;45.13;13.10;;;18.30;76.80;;;;;;4972871;28;20076;-59
2023/12/04 01:23:12;;;;;;;44.53;14.88;;;18.20;77.30;;;;;;4974285;28;20060;-62
2023/12/04 01:25:39;;;;;;;32.35;14.95;;;18.20;77.70;;;;;;4975411;28;20445;-58
2023/12/04 01:28:05;;;;;;;50.55;23.35;;;18.10;78.20;;;;;;4974569;28;20078;-57
2023/12/04 01:30:32;;;;;;;83.38;38.58;;;18.00;79.00;;;;;;4972385;28;20084;-58
2023/12/04 01:32:59;;;;;;;87.75;42.08;;;18.00;79.10;;;;;;4974286;28;20137;-59
2023/12/04 01:35:26;;;;;;;81.65;38.03;;;17.90;79.30;;;;;;4973170;28;20418;-59
2023/12/04 01:37:52;;;;;;;75.75;36.83;;;17.90;79.60;;;;;;4975247;28;20584;-57
2023/12/04 01:40:19;;;;;;;67.70;32.63;;;17.90;80.10;;;;;;4974117;28;20513;-56
2023/12/04 01:42:45;;;;;;;72.03;33.47;;;17.80;80.80;;;;;;4975071;28;20088;-55
2023/12/04 01:45:12;;;;;;;115.78;66.85;;;17.70;81.00;;;;;;4974635;28;20061;-58
2023/12/04 01:47:39;;;;;;;152.35;80.97;;;17.70;81.70;;;;;;4973628;28;20096;-59
2023/12/04 01:50:07;;;;;;;161.05;91.38;;;17.60;82.00;;;;;;4974869;28;20264;-58
2023/12/04 01:52:35;;;;;;;187.27;100.93;;;17.50;82.40;;;;;;4976348;28;20067;-60
2023/12/04 01:55:02;;;;;;;167.68;92.03;;;17.50;83.10;;;;;;4973806;28;20063;-58
2023/12/04 01:57:28;;;;;;;152.50;88.22;;;17.40;83.30;;;;;;4974351;28;20093;-60
2023/12/04 01:59:56;;;;;;;138.13;78.90;;;17.30;83.70;;;;;;4970541;28;20058;-60
2023/12/04 02:02:22;;;;;;;123.60;60.50;;;17.20;84.20;;;;;;4973397;28;20409;-58
2023/12/04 02:04:49;;;;;;;115.30;58.30;;;17.20;84.60;;;;;;4973028;28;20061;-59
2023/12/04 02:07:15;;;;;;;115.47;50.55;;;17.10;85.20;;;;;;4974458;28;20077;-56
2023/12/04 02:09:42;;;;;;;90.60;43.95;;;17.10;85.90;;;;;;4972532;28;20088;-57
2023/12/04 02:12:09;;;;;;;74.20;34.88;;;17.00;86.40;;;;;;4974893;28;20061;-56
2023/12/04 02:14:35;;;;;;;66.88;31.63;;;16.90;86.90;;;;;;4973211;28;20136;-57
2023/12/04 02:17:03;;;;;;;64.18;27.80;;;16.90;87.40;;;;;;4973383;28;20058;-57
2023/12/04 02:19:30;;;;;;;78.75;27.83;;;16.90;88.30;;;;;;4973066;28;20181;-57
2023/12/04 02:21:57;;;;;;;68.00;28.13;;;16.90;88.30;;;;;;4974420;28;20487;-57
2023/12/04 02:24:23;;;;;;;73.07;26.10;;;16.80;88.20;;;;;;4973394;28;20138;-59
2023/12/04 02:26:58;;;;;;;64.43;28.42;;;16.70;88.10;;;;;;4974811;28;20057;-59
2023/12/04 02:29:32;;;;;;;55.58;26.27;;;16.70;89.30;;;;;;4974084;28;20123;-63
2023/12/04 02:32:01;;;;;;;60.60;24.52;;;16.80;90.20;;;;;;4973861;28;20069;-62
2023/12/04 02:34:29;;;;;;;76.65;36.30;;;16.80;90.30;;;;;;4974969;28;20100;-60
2023/12/04 02:36:57;;;;;;;62.03;22.05;;;16.80;90.40;;;;;;4975363;28;20062;-61
2023/12/04 02:39:24;;;;;;;78.15;40.35;;;16.70;90.30;;;;;;4973490;28;20439;-60
2023/12/04 02:41:51;;;;;;;70.32;38.58;;;16.70;90.50;;;;;;4973191;28;20065;-61
2023/12/04 02:44:17;;;;;;;76.32;41.33;;;16.70;90.80;;;;;;4974348;28;20063;-60
2023/12/04 02:46:44;;;;;;;78.50;40.53;;;16.70;90.90;;;;;;4973356;28;20082;-64
2023/12/04 02:49:10;;;;;;;92.95;40.83;;;16.70;91.00;;;;;;4974497;28;20101;-61
2023/12/04 02:51:40;;;;;;;71.47;27.85;;;16.70;91.20;;;;;;4972438;28;20177;-62
2023/12/04 02:54:06;;;;;;;83.15;41.47;;;16.60;91.10;;;;;;4974636;28;20050;-60
2023/12/04 02:56:33;;;;;;;60.10;26.90;;;16.60;91.10;;;;;;4972751;28;20056;-60
2023/12/04 02:58:59;;;;;;;67.97;27.13;;;16.50;91.40;;;;;;4973334;28;20088;-61
2023/12/04 03:01:26;;;;;;;67.22;25.48;;;16.50;91.50;;;;;;4972048;28;20116;-60
2023/12/04 03:03:52;;;;;;;65.85;24.85;;;16.50;91.50;;;;;;4973438;28;20531;-64
2023/12/04 03:06:18;;;;;;;57.38;24.70;;;16.40;91.50;;;;;;4972025;28;20061;-61
2023/12/04 03:08:45;;;;;;;54.47;25.27;;;16.40;91.80;;;;;;4970917;28;20070;-61
2023/12/04 03:11:11;;;;;;;72.28;26.17;;;16.40;91.90;;;;;;4973780;28;20087;-62
2023/12/04 03:13:38;;;;;;;68.47;25.83;;;16.40;92.10;;;;;;4971885;28;20089;-62
2023/12/04 03:16:05;;;;;;;73.30;25.85;;;16.30;92.10;;;;;;4973320;28;20121;-59
2023/12/04 03:18:31;;;;;;;66.05;27.48;;;16.30;92.10;;;;;;4971686;28;20780;-61
2023/12/04 03:20:58;;;;;;;84.18;28.88;;;16.30;92.20;;;;;;4972166;28;20073;-62
2023/12/04 03:23:24;;;;;;;76.63;27.50;;;16.20;92.50;;;;;;4971834;28;20418;-61
2023/12/04 03:25:51;;;;;;;85.57;35.90;;;16.20;92.60;;;;;;4972615;28;20065;-62
2023/12/04 03:28:17;;;;;;;102.00;36.88;;;16.20;92.80;;;;;;4972522;28;20073;-61
2023/12/04 03:30:45;;;;;;;129.05;61.20;;;16.10;92.80;;;;;;4973231;28;20550;-61
2023/12/04 03:33:11;;;;;;;92.70;30.60;;;16.10;92.90;;;;;;4972917;28;20077;-61
2023/12/04 03:35:38;;;;;;;93.13;29.05;;;16.10;93.00;;;;;;4971085;28;20058;-62
2023/12/04 03:38:04;;;;;;;82.13;23.75;;;16.00;93.20;;;;;;4972142;28;20062;-62
2023/12/04 03:40:31;;;;;;;83.35;24.00;;;16.00;93.10;;;;;;4971291;28;20084;-62
2023/12/04 03:42:58;;;;;;;82.20;24.55;;;16.00;93.10;;;;;;4973756;28;20140;-62
2023/12/04 03:45:24;;;;;;;70.22;22.92;;;16.00;93.20;;;;;;4971356;28;20058;-61
2023/12/04 03:47:51;;;;;;;66.70;23.77;;;15.90;93.30;;;;;;4971539;28;20122;-62
2023/12/04 03:50:17;;;;;;;73.45;23.75;;;15.90;93.70;;;;;;4975087;28;20595;-63
2023/12/04 03:52:44;;;;;;;79.55;24.65;;;15.80;93.50;;;;;;4973201;28;20548;-61
2023/12/04 03:55:10;;;;;;;57.72;22.95;;;15.80;93.70;;;;;;4971753;28;20086;-60
2023/12/04 03:57:37;;;;;;;70.50;24.63;;;15.80;93.90;;;;;;4971560;28;20065;-62
2023/12/04 04:00:07;;;;;;;59.50;21.27;;;15.70;93.90;;;;;;4971590;28;20086;-61
2023/12/04 04:02:33;;;;;;;61.38;20.65;;;15.70;94.00;;;;;;4971861;28;20054;-60
2023/12/04 04:05:00;;;;;;;73.53;21.15;;;15.70;93.90;;;;;;4971169;28;20148;-62
2023/12/04 04:07:26;;;;;;;56.10;21.65;;;15.60;94.10;;;;;;4973413;28;20061;-61
2023/12/04 04:09:53;;;;;;;62.08;22.77;;;15.60;94.20;;;;;;4970176;28;20070;-60
2023/12/04 04:12:19;;;;;;;74.75;23.88;;;15.60;94.20;;;;;;4970383;28;20058;-60
2023/12/04 04:14:46;;;;;;;72.55;24.08;;;15.60;94.50;;;;;;4969860;28;20076;-62
2023/12/04 04:17:12;;;;;;;66.40;22.42;;;15.60;94.60;;;;;;4971294;28;20070;-61
2023/12/04 04:19:39;;;;;;;61.55;22.15;;;15.60;94.50;;;;;;4969884;28;20149;-61
2023/12/04 04:22:05;;;;;;;54.60;20.83;;;15.60;94.40;;;;;;4971237;28;20084;-63
2023/12/04 04:24:32;;;;;;;53.25;19.38;;;15.60;94.60;;;;;;4972124;28;20098;-63
2023/12/04 04:26:58;;;;;;;43.63;19.45;;;15.60;94.60;;;;;;4971276;28;20109;-63
2023/12/04 04:29:25;;;;;;;55.28;20.63;;;15.60;94.60;;;;;;4970213;28;21396;-62
2023/12/04 04:31:51;;;;;;;52.65;21.27;;;15.50;94.50;;;;;;4970935;28;20085;-62
2023/12/04 04:34:20;;;;;;;59.00;19.80;;;15.50;94.50;;;;;;4972875;28;20066;-63
2023/12/04 04:36:46;;;;;;;47.22;22.00;;;15.50;94.50;;;;;;4969727;28;21459;-62
2023/12/04 04:39:14;;;;;;;43.35;19.38;;;15.50;94.90;;;;;;4970338;28;20078;-63
2023/12/04 04:41:41;;;;;;;44.35;18.92;;;15.50;94.70;;;;;;4971421;28;20067;-62
2023/12/04 04:44:07;;;;;;;43.45;17.88;;;15.40;94.80;;;;;;4969952;28;20077;-64
2023/12/04 04:46:34;;;;;;;48.80;18.55;;;15.40;95.00;;;;;;4970913;28;20131;-64
2023/12/04 04:49:02;;;;;;;42.67;16.75;;;15.30;95.10;;;;;;4970977;28;20109;-61
2023/12/04 04:51:31;;;;;;;38.78;16.67;;;15.30;95.30;;;;;;4970036;28;20169;-61
2023/12/04 04:53:57;;;;;;;45.72;16.55;;;15.20;95.50;;;;;;4971067;28;20070;-63
2023/12/04 04:56:24;;;;;;;46.85;16.05;;;15.20;95.60;;;;;;4970938;28;20150;-62
2023/12/04 04:58:50;;;;;;;33.95;15.55;;;15.20;95.70;;;;;;4970171;28;20061;-62
2023/12/04 05:01:17;;;;;;;46.85;16.30;;;15.20;95.90;;;;;;4970248;28;20132;-62
2023/12/04 05:03:44;;;;;;;44.83;17.98;;;15.20;96.00;;;;;;4972768;28;20473;-64
2023/12/04 05:06:10;;;;;;;39.95;17.27;;;15.10;96.00;;;;;;4970804;28;20071;-63
2023/12/04 05:08:37;;;;;;;47.75;18.38;;;15.10;96.10;;;;;;4971951;28;20103;-62
2023/12/04 05:11:04;;;;;;;56.70;19.80;;;15.00;96.30;;;;;;4970602;28;20178;-61
2023/12/04 05:13:30;;;;;;;43.28;19.85;;;15.00;96.50;;;;;;4970226;28;20059;-61
2023/12/04 05:15:57;;;;;;;49.47;21.10;;;14.90;96.70;;;;;;4971431;28;20067;-63
2023/12/04 05:18:23;;;;;;;41.53;19.58;;;14.90;96.80;;;;;;4970780;28;20154;-61
2023/12/04 05:20:50;;;;;;;43.58;18.85;;;14.90;97.00;;;;;;4973425;28;20067;-61
2023/12/04 05:23:16;;;;;;;54.20;18.67;;;14.80;97.10;;;;;;4970455;28;20061;-63
2023/12/04 05:25:43;;;;;;;52.95;18.25;;;14.80;97.40;;;;;;4972217;28;20069;-62
2023/12/04 05:28:09;;;;;;;48.25;17.48;;;14.70;97.90;;;;;;4970273;28;20059;-62
2023/12/04 05:30:36;;;;;;;44.95;16.65;;;14.60;97.70;;;;;;4969905;28;20663;-64
2023/12/04 05:33:02;;;;;;;39.83;16.92;;;14.60;97.90;;;;;;4970363;28;20073;-63
2023/12/04 05:35:29;;;;;;;52.85;15.88;;;14.60;98.00;;;;;;4970471;28;20588;-63
2023/12/04 05:37:55;;;;;;;43.95;16.45;;;14.50;98.00;;;;;;4974333;28;20063;-63
2023/12/04 05:40:22;;;;;;;42.00;16.83;;;14.50;98.00;;;;;;4973257;28;20146;-63
2023/12/04 05:42:48;;;;;;;43.47;17.67;;;14.50;98.50;;;;;;4973231;28;20109;-61
2023/12/04 05:45:15;;;;;;;57.10;19.10;;;14.40;98.50;;;;;;4973526;28;20059;-62
2023/12/04 05:47:41;;;;;;;47.75;19.63;;;14.40;98.50;;;;;;4971051;28;20461;-60
2023/12/04 05:50:08;;;;;;;35.97;17.73;;;14.40;98.50;;;;;;4970132;28;20173;-63
2023/12/04 05:52:35;;;;;;;45.78;19.25;;;14.40;98.80;;;;;;4973453;28;20059;-62
2023/12/04 05:55:02;;;;;;;42.55;22.73;;;14.40;98.90;;;;;;4972992;28;20118;-62
2023/12/04 05:57:28;;;;;;;48.25;21.73;;;14.30;98.80;;;;;;4974479;28;20064;-62
2023/12/04 05:59:55;;;;;;;47.13;20.02;;;14.30;99.00;;;;;;4973334;28;20513;-63
2023/12/04 06:02:21;;;;;;;45.28;18.90;;;14.20;99.30;;;;;;4971335;28;20071;-62
2023/12/04 06:04:48;;;;;;;35.55;18.30;;;14.20;99.40;;;;;;4973173;28;20070;-63
2023/12/04 06:07:15;;;;;;;38.75;18.55;;;14.20;99.70;;;;;;4972335;28;20509;-64
2023/12/04 06:09:41;;;;;;;35.30;17.17;;;14.20;99.90;;;;;;4971284;28;20070;-63
2023/12/04 06:12:09;;;;;;;38.78;18.70;;;14.10;99.90;;;;;;4973130;28;20066;-63
2023/12/04 06:14:36;;;;;;;46.78;18.98;;;14.10;99.90;;;;;;4971573;28;20067;-62
2023/12/04 06:17:02;;;;;;;41.13;19.67;;;14.10;99.90;;;;;;4971692;28;20063;-63
2023/12/04 06:19:29;;;;;;;43.42;19.30;;;14.10;99.90;;;;;;4970436;28;20081;-64
2023/12/04 06:21:55;;;;;;;52.25;20.90;;;14.00;99.90;;;;;;4972879;28;20553;-63
2023/12/04 06:24:22;;;;;;;40.85;19.30;;;14.00;99.90;;;;;;4974013;28;20514;-64
2023/12/04 06:26:51;;;;;;;40.90;18.85;;;14.00;99.90;;;;;;4972961;28;20066;-63
2023/12/04 06:29:19;;;;;;;38.00;18.85;;;14.00;99.90;;;;;;4972017;28;20068;-63
2023/12/04 06:31:45;;;;;;;45.17;20.60;;;13.90;99.90;;;;;;4972738;28;20171;-63
2023/12/04 06:34:12;;;;;;;56.22;22.30;;;13.90;99.90;;;;;;4973178;28;20187;-63
2023/12/04 06:36:40;;;;;;;47.80;22.95;;;13.90;99.90;;;;;;4972127;28;20142;-62
2023/12/04 06:39:17;;;;;;;46.50;22.23;;;13.90;99.90;;;;;;4971925;28;20137;-62
2023/12/04 06:41:46;;;;;;;73.03;39.40;;;13.90;99.90;;;;;;4975822;28;20524;-62
2023/12/04 06:44:13;;;;;;;94.90;52.28;;;13.80;99.90;;;;;;4971258;28;20080;-62
2023/12/04 06:46:41;;;;;;;102.50;63.95;;;13.80;99.90;;;;;;4971713;28;20436;-62
2023/12/04 06:49:09;;;;;;;64.60;28.13;;;13.80;99.90;;;;;;4970991;28;20099;-62
2023/12/04 06:51:36;;;;;;;64.68;23.98;;;13.80;99.90;;;;;;4971763;28;20090;-62
2023/12/04 06:54:02;;;;;;;75.07;41.47;;;13.80;99.90;;;;;;4972688;28;20084;-61
2023/12/04 06:56:29;;;;;;;80.43;40.78;;;13.80;99.90;;;;;;4973612;28;20066;-61
2023/12/04 06:58:55;;;;;;;82.55;35.45;;;13.70;99.90;;;;;;4971260;28;20052;-61
2023/12/04 07:01:22;;;;;;;71.30;33.90;;;13.70;99.90;;;;;;4972889;28;20074;-62
2023/12/04 07:03:49;;;;;;;88.60;31.45;;;13.70;99.90;;;;;;4974902;28;20544;-63
2023/12/04 07:06:15;;;;;;;96.10;32.47;;;13.60;99.90;;;;;;4972081;28;20153;-62
2023/12/04 07:08:42;;;;;;;85.88;34.53;;;13.60;99.90;;;;;;4975018;28;20070;-62
2023/12/04 07:11:08;;;;;;;96.30;34.90;;;13.60;99.90;;;;;;4973589;28;20411;-60
2023/12/04 07:13:35;;;;;;;117.78;40.03;;;13.60;99.90;;;;;;4973253;28;20067;-62
2023/12/04 07:16:02;;;;;;;114.68;42.15;;;13.60;99.90;;;;;;4971607;28;20067;-61
2023/12/04 07:18:29;;;;;;;106.80;40.28;;;13.60;99.90;;;;;;4971133;28;20135;-59
2023/12/04 07:20:55;;;;;;;107.90;40.50;;;13.60;99.90;;;;;;4971809;28;20087;-61
2023/12/04 07:23:22;;;;;;;121.05;41.55;;;13.60;99.90;;;;;;4972870;28;20079;-61
2023/12/04 07:25:49;;;;;;;106.60;41.47;;;13.60;99.90;;;;;;4972582;28;20065;-60
2023/12/04 07:28:15;;;;;;;107.13;40.15;;;13.60;99.90;;;;;;4972518;28;20080;-61
2023/12/04 07:30:42;;;;;;;116.20;41.85;;;13.60;99.90;;;;;;4968974;28;20157;-60
2023/12/04 07:33:08;;;;;;;118.85;40.05;;;13.50;99.90;;;;;;4971574;28;20078;-63
2023/12/04 07:35:35;;;;;;;105.43;42.10;;;13.50;99.90;;;;;;4971652;28;20051;-62
2023/12/04 07:38:03;;;;;;;107.60;39.85;;;13.50;99.90;;;;;;4972528;28;20059;-61
2023/12/04 07:40:32;;;;;;;134.70;44.00;;;13.50;99.90;;;;;;4971282;28;20112;-62
2023/12/04 07:42:58;;;;;;;127.50;53.42;;;13.40;99.90;;;;;;4972662;28;20072;-62
2023/12/04 07:45:26;;;;;;;139.18;58.38;;;13.40;99.90;;;;;;4974212;28;20153;-61
2023/12/04 07:47:53;;;;;;;125.20;57.92;;;13.40;99.90;;;;;;4972207;28;20072;-62
2023/12/04 07:50:19;;;;;;;126.95;45.30;;;13.40;99.90;;;;;;4971249;28;20103;-62
2023/12/04 07:52:46;;;;;;;122.55;43.75;;;13.30;99.90;;;;;;4972265;28;20071;-62
2023/12/04 07:55:13;;;;;;;119.07;44.30;;;13.30;99.90;;;;;;4973348;28;20070;-61
2023/12/04 07:57:39;;;;;;;127.68;50.22;;;13.30;99.90;;;;;;4970881;28;20594;-63
2023/12/04 08:00:06;;;;;;;111.75;42.15;;;13.20;99.90;;;;;;4969470;28;20102;-62
2023/12/04 08:02:33;;;;;;;125.68;44.17;;;13.20;99.90;;;;;;4971422;28;20571;-63
2023/12/04 08:04:59;;;;;;;110.57;42.88;;;13.10;99.90;;;;;;4974511;28;20117;-62
2023/12/04 08:07:26;;;;;;;123.22;44.42;;;13.10;99.90;;;;;;4971836;28;20068;-62
2023/12/04 08:09:53;;;;;;;123.13;45.00;;;13.20;99.90;;;;;;4973303;28;20064;-62
2023/12/04 08:12:20;;;;;;;111.47;43.70;;;13.10;99.90;;;;;;4971215;28;20514;-61
2023/12/04 08:14:46;;;;;;;120.75;42.88;;;13.20;99.90;;;;;;4969691;28;20104;-61
2023/12/04 08:17:13;;;;;;;123.85;44.50;;;13.10;99.90;;;;;;4971383;28;20057;-62
2023/12/04 08:19:39;;;;;;;116.90;42.35;;;13.10;99.90;;;;;;4971451;28;20072;-60
2023/12/04 08:22:06;;;;;;;112.38;42.40;;;13.10;99.90;;;;;;4971006;28;20518;-62
2023/12/04 08:24:32;;;;;;;113.43;40.60;;;13.00;99.90;;;;;;4971120;28;20711;-61
2023/12/04 08:26:59;;;;;;;106.07;41.50;;;13.00;99.90;;;;;;4969369;28;20476;-59
2023/12/04 08:29:25;;;;;;;128.70;57.67;;;13.10;99.90;;;;;;4971173;28;20058;-62
2023/12/04 08:31:51;;;;;;;;;;;13.00;99.90;;;;;;4971098;28;20087;-61
2023/12/04 08:34:18;;;;;;;82.78;38.95;;;12.90;99.90;;;;;;4969820;28;20329;-62
2023/12/04 08:36:44;;;;;;;88.97;37.05;;;12.90;99.90;;;;;;4970787;28;20052;-61
2023/12/04 08:39:11;;;;;;;99.72;37.58;;;12.90;99.90;;;;;;4970402;28;20092;-61
2023/12/04 08:41:38;;;;;;;82.70;34.65;;;12.90;99.90;;;;;;4971088;28;20072;-62
2023/12/04 08:44:04;;;;;;;73.15;32.88;;;12.80;99.90;;;;;;4969488;28;20059;-61
2023/12/04 08:46:31;;;;;;;95.38;45.35;;;12.80;99.90;;;;;;4970782;28;20088;-60
2023/12/04 08:48:58;;;;;;;74.45;34.90;;;12.70;99.90;;;;;;4969828;28;20112;-61
2023/12/04 08:51:24;;;;;;;80.78;34.92;;;12.80;99.90;;;;;;4977898;28;20473;-61
2023/12/04 08:53:51;;;;;;;75.70;37.33;;;12.80;99.90;;;;;;4969328;28;20077;-62
2023/12/04 08:56:18;;;;;;;82.57;34.45;;;12.80;99.90;;;;;;4971520;28;20054;-61
2023/12/04 08:58:44;;;;;;;68.00;32.97;;;12.80;99.90;;;;;;4971258;28;20064;-61
2023/12/04 09:01:10;;;;;;;;;;;12.80;99.90;;;;;;4969613;28;20153;-61
2023/12/04 09:03:37;;;;;;;65.38;32.65;;;12.80;99.90;;;;;;4970175;28;20436;-62
2023/12/04 09:06:04;;;;;;;76.88;33.63;;;12.70;99.90;;;;;;4970368;28;20061;-61
2023/12/04 09:08:32;;;;;;;79.18;34.58;;;12.70;99.90;;;;;;4971298;28;20403;-62
2023/12/04 09:10:59;;;;;;;84.32;35.08;;;12.70;99.90;;;;;;4972432;28;20128;-61
2023/12/04 09:13:25;;;;;;;77.53;32.92;;;12.60;99.90;;;;;;4974204;28;20064;-61
2023/12/04 09:15:52;;;;;;;88.70;35.53;;;12.70;99.90;;;;;;4976082;28;20071;-61
2023/12/04 09:18:19;;;;;;;87.82;36.50;;;12.70;99.90;;;;;;4975626;28;20083;-60
2023/12/04 09:20:45;;;;;;;81.80;34.45;;;12.60;99.90;;;;;;4974540;28;20091;-60
2023/12/04 09:23:12;;;;;;;76.72;35.15;;;12.50;99.90;;;;;;4974332;28;20080;-62
2023/12/04 09:25:38;;;;;;;75.45;34.20;;;12.50;99.90;;;;;;4973755;28;20065;-61
2023/12/04 09:28:05;;;;;;;73.15;35.78;;;12.50;99.90;;;;;;4974303;28;20528;-59
2023/12/04 09:30:31;;;;;;;88.53;34.97;;;12.50;99.90;;;;;;4974897;28;20159;-60
2023/12/04 09:32:58;;;;;;;79.28;36.25;;;12.40;99.90;;;;;;4973743;28;20537;-63
2023/12/04 09:35:24;;;;;;;69.55;32.67;;;12.30;99.90;;;;;;4973045;28;20072;-60
2023/12/04 09:37:51;;;;;;;66.88;33.83;;;12.40;99.90;;;;;;4973843;28;20136;-62
2023/12/04 09:40:17;;;;;;;82.43;35.45;;;12.30;99.90;;;;;;4974741;28;20073;-61
2023/12/04 09:42:44;;;;;;;82.93;34.38;;;12.30;99.90;;;;;;4973575;28;20068;-61
2023/12/04 09:45:12;;;;;;;63.60;32.70;;;12.30;99.90;;;;;;4973429;28;20062;-61
2023/12/04 09:47:38;;;;;;;75.88;35.03;;;12.20;99.90;;;;;;4972216;28;20073;-63
2023/12/04 09:50:07;;;;;;;69.68;32.92;;;12.20;99.90;;;;;;4971027;28;20156;-62
2023/12/04 09:52:38;;;;;;;73.45;33.58;;;12.20;99.90;;;;;;4977944;28;20431;-61
2023/12/04 09:55:05;;;;;;;76.95;35.80;;;12.20;99.90;;;;;;4974394;28;20901;-60
2023/12/04 09:57:32;;;;;;;72.50;33.78;;;12.20;99.90;;;;;;4973244;28;20061;-62
2023/12/04 10:00:02;;;;;;;72.22;33.53;;;12.10;99.90;;;;;;4972967;28;20879;-63
2023/12/04 10:02:29;;;;;;;71.25;33.65;;;12.10;99.90;;;;;;4972133;28;20096;-61
2023/12/04 10:04:56;;;;;;;68.28;35.53;;;12.20;99.90;;;;;;4973581;28;20057;-61
2023/12/04 10:07:22;;;;;;;72.32;35.25;;;12.20;99.90;;;;;;4971889;28;20440;-61
2023/12/04 10:09:49;;;;;;;75.43;33.72;;;12.20;99.90;;;;;;4974330;28;20746;-60
2023/12/04 10:12:21;;;;;;;75.78;33.72;;;12.20;99.90;;;;;;4973078;28;20069;-61
2023/12/04 10:15:12;;;;;;;77.25;34.72;;;12.20;99.90;;;;;;4972639;28;20548;-58
2023/12/04 10:17:43;;;;;;;71.20;33.20;;;12.20;99.90;;;;;;4971903;28;20569;-63
2023/12/04 10:20:12;;;;;;;54.35;30.58;;;12.00;99.90;;;;;;4973035;28;20066;-63
2023/12/04 10:22:40;;;;;;;66.22;30.10;;;11.90;99.90;;;;;;4973005;28;20403;-63
2023/12/04 10:25:31;;;;;;;57.38;30.63;;;11.90;99.90;;;;;;4972471;28;20065;-64
2023/12/04 10:28:11;;;;;;;68.22;30.38;;;11.90;99.90;;;;;;4969134;28;20438;-63
2023/12/04 10:30:37;;;;;;;56.05;28.63;;;12.00;99.90;;;;;;4974591;28;20096;-62
2023/12/04 10:33:07;;;;;;;52.45;27.23;;;12.00;99.90;;;;;;4972559;28;20073;-63
2023/12/04 10:35:38;;;;;;;49.20;26.90;;;12.00;99.90;;;;;;4973950;28;20069;-64
2023/12/04 10:38:06;;;;;;;60.40;25.77;;;11.90;99.90;;;;;;4974237;28;20065;-62
2023/12/04 10:40:37;;;;;;;52.15;24.98;;;12.00;99.90;;;;;;4975137;28;20075;-62
2023/12/04 10:43:11;;;;;;;51.97;23.60;;;12.00;99.90;;;;;;4974593;28;20143;-62
2023/12/04 10:45:39;;;;;;;39.45;22.85;;;11.90;99.90;;;;;;4971712;28;20091;-63
2023/12/04 10:48:06;;;;;;;43.80;23.20;;;12.00;99.90;;;;;;4972507;28;20597;-63
2023/12/04 10:50:39;;;;;;;43.35;23.30;;;12.00;99.90;;;;;;4973486;28;20111;-63
2023/12/04 10:53:10;;;;;;;37.85;19.55;;;11.90;99.90;;;;;;4972706;28;20069;-62
2023/12/04 10:55:38;;;;;;;33.38;18.35;;;12.00;99.90;;;;;;4971839;28;20520;-62
2023/12/04 10:58:12;;;;;;;33.60;15.90;;;12.00;99.90;;;;;;4971553;28;20061;-63
2023/12/04 11:00:49;;;;;;;31.48;15.15;;;12.00;99.90;;;;;;4970937;28;20540;-64
2023/12/04 11:03:28;;;;;;;32.40;15.25;;;12.00;99.90;;;;;;4972540;28;20065;-62
2023/12/04 11:06:01;;;;;;;28.98;13.85;;;12.00;99.90;;;;;;4972725;28;20068;-65
2023/12/04 11:08:35;;;;;;;21.98;11.75;;;12.00;99.90;;;;;;4971927;28;20108;-63
2023/12/04 11:11:16;;;;;;;20.63;12.65;;;12.10;99.90;;;;;;4970325;28;20081;-63
2023/12/04 11:13:46;;;;;;;23.35;12.52;;;12.00;99.90;;;;;;4970884;28;20599;-63
2023/12/04 11:16:33;;;;;;;22.27;12.38;;;12.00;99.80;;;;;;4972873;28;20173;-62
2023/12/04 11:19:21;;;;;;;22.80;13.13;;;12.00;99.90;;;;;;4969950;28;20547;-65
2023/12/04 11:21:49;;;;;;;31.48;15.20;;;12.00;99.90;;;;;;4972134;28;20594;-63
2023/12/04 11:24:18;;;;;;;26.08;15.20;;;12.00;99.80;;;;;;4975020;28;20073;-62
2023/12/04 11:26:45;;;;;;;26.38;15.13;;;12.00;99.90;;;;;;4973057;28;20068;-62
2023/12/04 11:29:14;;;;;;;34.33;14.52;;;12.00;99.90;;;;;;4974016;28;20067;-64
2023/12/04 11:31:40;;;;;;;25.05;14.27;;;12.00;99.90;;;;;;4973115;28;20585;-66
2023/12/04 11:34:11;;;;;;;28.95;14.35;;;12.00;99.90;;;;;;4969496;28;20077;-63
2023/12/04 11:36:38;;;;;;;23.67;13.68;;;11.90;99.90;;;;;;4971458;28;20600;-63
2023/12/04 11:39:12;;;;;;;27.55;12.07;;;11.80;99.90;;;;;;4971929;28;20092;-63
2023/12/04 11:41:42;;;;;;;25.88;12.65;;;11.90;99.90;;;;;;4971165;28;20088;-62
2023/12/04 11:44:14;;;;;;;24.05;11.27;;;11.80;99.80;;;;;;4971188;28;20179;-62
2023/12/04 11:46:56;;;;;;;26.55;11.18;;;11.80;99.70;;;;;;4971596;28;20531;-62
2023/12/04 11:49:26;;;;;;;28.95;10.25;;;11.80;99.50;;;;;;4970263;28;20065;-63
2023/12/04 11:51:52;;;;;;;26.60;10.25;;;11.80;99.30;;;;;;4971319;28;20103;-60
2023/12/04 11:54:24;;;;;;;21.70;9.65;;;11.80;99.30;;;;;;4970067;28;20110;-63
2023/12/04 11:57:10;;;;;;;16.25;9.25;;;11.80;99.10;;;;;;4970835;28;20065;-64
2023/12/04 11:59:40;;;;;;;16.70;8.98;;;11.80;99.30;;;;;;4968719;28;20075;-64
2023/12/04 12:02:10;;;;;;;23.00;8.38;;;11.80;99.10;;;;;;4970565;28;20492;-65
2023/12/04 12:04:38;;;;;;;43.47;24.90;;;11.80;99.40;;;;;;4971233;28;20469;-64
2023/12/04 12:07:05;;;;;;;55.58;26.27;;;11.80;99.30;;;;;;4970346;28;20422;-63
2023/12/04 12:09:34;;;;;;;23.00;8.48;;;11.80;99.10;;;;;;4971695;28;20574;-63
2023/12/04 12:12:04;;;;;;;16.35;8.02;;;11.70;99.00;;;;;;4971937;28;20498;-63
2023/12/04 12:14:31;;;;;;;14.82;6.75;;;11.80;99.00;;;;;;4971270;28;20094;-62
2023/12/04 12:17:01;;;;;;;50.05;8.02;;;11.70;98.80;;;;;;4972200;28;20515;-62
2023/12/04 12:19:27;;;;;;;37.78;7.45;;;11.70;98.60;;;;;;4971988;28;20084;-63
2023/12/04 12:21:54;;;;;;;23.92;6.40;;;11.80;98.70;;;;;;4971804;28;20115;-65
2023/12/04 12:24:21;;;;;;;18.73;7.00;;;11.80;98.70;;;;;;4970705;28;20069;-62
2023/12/04 12:26:48;;;;;;;24.33;7.72;;;11.80;98.80;;;;;;4969054;28;20064;-64
2023/12/04 12:29:14;;;;;;;20.00;7.38;;;11.70;98.80;;;;;;4970560;28;20096;-62